Terminal Aerodrome Forecast
Issued by NWS Charleston, WV

Current Version | Previous Version | Graphics & Text | Print | Product List | Glossary On
Versions: 1 2 3 4 5 6 7 8 9 10 11 12 13 14 15 16 17 18 19 20 21 22 23 24
000
FTUS41 KRLX 270900 AAB
TAFBKW
TAF AMD
KBKW 270933Z 2710/2806 33010KT 2SM BR OVC004
      TEMPO 2710/2712 1/2SM FG OVC002
     FM271200 33010KT 3SM BR OVC005
     FM271400 32011KT 6SM BR OVC010
     FM271600 32012KT P6SM OVC020
     FM271800 32012G18KT P6SM OVC035
     FM272300 32009KT P6SM OVC030
     FM280000 32008KT P6SM -SHSN OVC030
     FM280500 32007KT P6SM BKN040=

USA.gov is the U.S. government's official web portal to all federal, state and local government web resources and services.